sensor_id;sensor_type;location;lat;lon;timestamp;temperature;humidity
12761;DHT22;6444;49.742;6.114;2023-05-29T00:00:36;16.10;99.90
12761;DHT22;6444;49.742;6.114;2023-05-29T00:03:02;15.70;99.90
12761;DHT22;6444;49.742;6.114;2023-05-29T00:05:29;14.90;99.90
12761;DHT22;6444;49.742;6.114;2023-05-29T00:07:56;14.90;99.90
12761;DHT22;6444;49.742;6.114;2023-05-29T00:10:22;14.90;99.90
12761;DHT22;6444;49.742;6.114;2023-05-29T00:12:49;15.10;99.90
12761;DHT22;6444;49.742;6.114;2023-05-29T00:15:16;14.90;99.90
12761;DHT22;6444;49.742;6.114;2023-05-29T00:17:43;14.80;99.90
12761;DHT22;6444;49.742;6.114;2023-05-29T00:20:10;14.70;99.90
12761;DHT22;6444;49.742;6.114;2023-05-29T00:22:36;14.80;99.90
12761;DHT22;6444;49.742;6.114;2023-05-29T00:25:06;14.90;99.90
12761;DHT22;6444;49.742;6.114;2023-05-29T00:27:33;15.00;99.90
12761;DHT22;6444;49.742;6.114;2023-05-29T00:30:00;14.80;99.90
12761;DHT22;6444;49.742;6.114;2023-05-29T00:32:26;14.70;99.90
12761;DHT22;6444;49.742;6.114;2023-05-29T00:34:53;14.50;99.90
12761;DHT22;6444;49.742;6.114;2023-05-29T00:37:19;14.60;99.90
12761;DHT22;6444;49.742;6.114;2023-05-29T00:39:46;14.70;99.90
12761;DHT22;6444;49.742;6.114;2023-05-29T00:42:12;14.50;99.90
12761;DHT22;6444;49.742;6.114;2023-05-29T00:44:39;14.90;99.90
12761;DHT22;6444;49.742;6.114;2023-05-29T00:47:06;15.00;99.90
12761;DHT22;6444;49.742;6.114;2023-05-29T00:49:32;15.20;99.90
12761;DHT22;6444;49.742;6.114;2023-05-29T00:51:59;14.90;99.90
12761;DHT22;6444;49.742;6.114;2023-05-29T00:54:29;14.10;99.90
12761;DHT22;6444;49.742;6.114;2023-05-29T00:56:58;13.80;99.90
12761;DHT22;6444;49.742;6.114;2023-05-29T00:59:22;13.70;99.90
12761;DHT22;6444;49.742;6.114;2023-05-29T01:01:49;13.20;99.90
12761;DHT22;6444;49.742;6.114;2023-05-29T01:04:16;13.10;99.90
12761;DHT22;6444;49.742;6.114;2023-05-29T01:06:42;13.20;99.90
12761;DHT22;6444;49.742;6.114;2023-05-29T01:09:09;13.10;99.90
12761;DHT22;6444;49.742;6.114;2023-05-29T01:14:44;12.40;99.90
12761;DHT22;6444;49.742;6.114;2023-05-29T01:17:33;12.50;99.90
12761;DHT22;6444;49.742;6.114;2023-05-29T01:20:07;12.40;99.90
12761;DHT22;6444;49.742;6.114;2023-05-29T01:25:17;13.20;99.90
12761;DHT22;6444;49.742;6.114;2023-05-29T01:27:38;13.30;99.90
12761;DHT22;6444;49.742;6.114;2023-05-29T01:30:05;13.30;99.90
12761;DHT22;6444;49.742;6.114;2023-05-29T01:32:31;13.00;99.90
12761;DHT22;6444;49.742;6.114;2023-05-29T01:34:58;13.20;99.90
12761;DHT22;6444;49.742;6.114;2023-05-29T01:37:25;12.90;99.90
12761;DHT22;6444;49.742;6.114;2023-05-29T01:39:51;13.40;99.90
12761;DHT22;6444;49.742;6.114;2023-05-29T01:42:18;13.30;99.90
12761;DHT22;6444;49.742;6.114;2023-05-29T01:44:45;13.00;99.90
12761;DHT22;6444;49.742;6.114;2023-05-29T01:47:12;12.90;99.90
12761;DHT22;6444;49.742;6.114;2023-05-29T01:49:39;12.90;99.90
12761;DHT22;6444;49.742;6.114;2023-05-29T01:52:05;12.70;99.90
12761;DHT22;6444;49.742;6.114;2023-05-29T01:54:32;12.80;99.90
12761;DHT22;6444;49.742;6.114;2023-05-29T01:56:59;13.10;99.90
12761;DHT22;6444;49.742;6.114;2023-05-29T01:59:25;13.20;99.90
12761;DHT22;6444;49.742;6.114;2023-05-29T02:01:52;12.90;99.90
12761;DHT22;6444;49.742;6.114;2023-05-29T02:04:18;12.70;99.90
12761;DHT22;6444;49.742;6.114;2023-05-29T02:06:45;12.50;99.90
12761;DHT22;6444;49.742;6.114;2023-05-29T02:09:12;12.30;99.90
12761;DHT22;6444;49.742;6.114;2023-05-29T02:11:39;12.40;99.90
12761;DHT22;6444;49.742;6.114;2023-05-29T02:14:06;12.40;99.90
12761;DHT22;6444;49.742;6.114;2023-05-29T02:16:32;12.50;99.90
12761;DHT22;6444;49.742;6.114;2023-05-29T02:19:00;12.60;99.90
12761;DHT22;6444;49.742;6.114;2023-05-29T02:21:25;12.80;99.90
12761;DHT22;6444;49.742;6.114;2023-05-29T02:23:52;12.40;99.90
12761;DHT22;6444;49.742;6.114;2023-05-29T02:26:19;12.60;99.90
12761;DHT22;6444;49.742;6.114;2023-05-29T02:28:45;12.40;99.90
12761;DHT22;6444;49.742;6.114;2023-05-29T02:31:12;12.60;99.90
12761;DHT22;6444;49.742;6.114;2023-05-29T02:33:39;12.60;99.90
12761;DHT22;6444;49.742;6.114;2023-05-29T02:36:05;12.90;99.90
12761;DHT22;6444;49.742;6.114;2023-05-29T02:38:33;12.70;99.90
12761;DHT22;6444;49.742;6.114;2023-05-29T02:40:59;12.60;99.90
12761;DHT22;6444;49.742;6.114;2023-05-29T02:43:26;12.90;99.90
12761;DHT22;6444;49.742;6.114;2023-05-29T02:45:52;12.70;99.90
12761;DHT22;6444;49.742;6.114;2023-05-29T02:48:20;12.30;99.90
12761;DHT22;6444;49.742;6.114;2023-05-29T02:50:47;12.40;99.90
12761;DHT22;6444;49.742;6.114;2023-05-29T02:53:14;12.40;99.90
12761;DHT22;6444;49.742;6.114;2023-05-29T02:55:40;12.20;99.90
12761;DHT22;6444;49.742;6.114;2023-05-29T02:58:08;11.70;99.90
12761;DHT22;6444;49.742;6.114;2023-05-29T03:00:34;11.60;99.90
12761;DHT22;6444;49.742;6.114;2023-05-29T03:03:01;12.00;99.90
12761;DHT22;6444;49.742;6.114;2023-05-29T03:05:28;12.10;99.90
12761;DHT22;6444;49.742;6.114;2023-05-29T03:07:54;11.70;99.90
12761;DHT22;6444;49.742;6.114;2023-05-29T03:10:21;11.30;99.90
12761;DHT22;6444;49.742;6.114;2023-05-29T03:12:48;11.40;99.90
12761;DHT22;6444;49.742;6.114;2023-05-29T03:15:14;11.40;99.90
12761;DHT22;6444;49.742;6.114;2023-05-29T03:17:41;11.50;99.90
12761;DHT22;6444;49.742;6.114;2023-05-29T03:20:08;11.20;99.90
12761;DHT22;6444;49.742;6.114;2023-05-29T03:22:34;11.40;99.90
12761;DHT22;6444;49.742;6.114;2023-05-29T03:25:02;11.20;99.90
12761;DHT22;6444;49.742;6.114;2023-05-29T03:27:27;10.90;99.90
12761;DHT22;6444;49.742;6.114;2023-05-29T03:29:54;11.30;99.90
12761;DHT22;6444;49.742;6.114;2023-05-29T03:32:21;11.90;99.90
12761;DHT22;6444;49.742;6.114;2023-05-29T03:34:47;12.60;99.90
12761;DHT22;6444;49.742;6.114;2023-05-29T03:37:14;12.50;99.90
12761;DHT22;6444;49.742;6.114;2023-05-29T03:39:41;12.40;99.90
12761;DHT22;6444;49.742;6.114;2023-05-29T03:42:07;12.90;99.90
12761;DHT22;6444;49.742;6.114;2023-05-29T03:44:34;13.40;99.90
12761;DHT22;6444;49.742;6.114;2023-05-29T03:47:01;14.10;99.90
12761;DHT22;6444;49.742;6.114;2023-05-29T03:49:28;14.00;99.90
12761;DHT22;6444;49.742;6.114;2023-05-29T03:51:54;13.10;99.90
12761;DHT22;6444;49.742;6.114;2023-05-29T03:54:22;13.00;99.90
12761;DHT22;6444;49.742;6.114;2023-05-29T03:56:48;12.90;99.90
12761;DHT22;6444;49.742;6.114;2023-05-29T03:59:15;12.60;99.90
12761;DHT22;6444;49.742;6.114;2023-05-29T04:01:42;12.90;99.90
12761;DHT22;6444;49.742;6.114;2023-05-29T04:04:09;11.40;99.90
12761;DHT22;6444;49.742;6.114;2023-05-29T04:06:36;11.40;99.90
12761;DHT22;6444;49.742;6.114;2023-05-29T04:09:05;11.50;99.90
12761;DHT22;6444;49.742;6.114;2023-05-29T04:11:34;11.90;99.90
12761;DHT22;6444;49.742;6.114;2023-05-29T04:13:59;12.50;99.90
12761;DHT22;6444;49.742;6.114;2023-05-29T04:16:26;12.50;99.90
12761;DHT22;6444;49.742;6.114;2023-05-29T04:18:52;13.10;99.90
12761;DHT22;6444;49.742;6.114;2023-05-29T04:21:19;13.70;99.90
12761;DHT22;6444;49.742;6.114;2023-05-29T04:23:46;13.40;99.90
12761;DHT22;6444;49.742;6.114;2023-05-29T04:26:13;13.30;99.90
12761;DHT22;6444;49.742;6.114;2023-05-29T04:28:39;13.30;99.90
12761;DHT22;6444;49.742;6.114;2023-05-29T04:31:06;12.90;99.90
12761;DHT22;6444;49.742;6.114;2023-05-29T04:33:33;12.80;99.90
12761;DHT22;6444;49.742;6.114;2023-05-29T04:35:59;13.60;99.90
12761;DHT22;6444;49.742;6.114;2023-05-29T04:38:26;13.50;99.90
12761;DHT22;6444;49.742;6.114;2023-05-29T04:40:52;13.50;99.90
12761;DHT22;6444;49.742;6.114;2023-05-29T04:43:19;13.30;99.90
12761;DHT22;6444;49.742;6.114;2023-05-29T04:45:46;13.10;99.90
12761;DHT22;6444;49.742;6.114;2023-05-29T04:48:12;13.00;99.90
12761;DHT22;6444;49.742;6.114;2023-05-29T04:50:39;12.60;99.90
12761;DHT22;6444;49.742;6.114;2023-05-29T04:53:06;14.30;99.90
12761;DHT22;6444;49.742;6.114;2023-05-29T04:55:33;14.30;99.90
12761;DHT22;6444;49.742;6.114;2023-05-29T04:58:00;15.90;99.90
12761;DHT22;6444;49.742;6.114;2023-05-29T05:00:26;17.30;99.90
12761;DHT22;6444;49.742;6.114;2023-05-29T05:02:53;18.90;99.90
12761;DHT22;6444;49.742;6.114;2023-05-29T05:05:19;20.40;99.90
12761;DHT22;6444;49.742;6.114;2023-05-29T05:07:46;20.70;99.90
12761;DHT22;6444;49.742;6.114;2023-05-29T05:10:13;20.90;99.90
12761;DHT22;6444;49.742;6.114;2023-05-29T05:12:39;21.70;99.90
12761;DHT22;6444;49.742;6.114;2023-05-29T05:15:06;23.50;99.90
12761;DHT22;6444;49.742;6.114;2023-05-29T05:17:33;22.50;99.90
12761;DHT22;6444;49.742;6.114;2023-05-29T05:19:59;22.10;99.90
12761;DHT22;6444;49.742;6.114;2023-05-29T05:22:26;21.90;99.90
12761;DHT22;6444;49.742;6.114;2023-05-29T05:24:53;23.10;99.90
12761;DHT22;6444;49.742;6.114;2023-05-29T05:27:20;23.10;99.90
12761;DHT22;6444;49.742;6.114;2023-05-29T05:29:47;24.50;98.40
12761;DHT22;6444;49.742;6.114;2023-05-29T05:32:13;26.10;98.60
12761;DHT22;6444;49.742;6.114;2023-05-29T05:34:41;27.70;92.10
12761;DHT22;6444;49.742;6.114;2023-05-29T05:37:07;27.70;92.00
12761;DHT22;6444;49.742;6.114;2023-05-29T05:39:34;28.00;91.90
12761;DHT22;6444;49.742;6.114;2023-05-29T05:42:00;28.20;90.60
12761;DHT22;6444;49.742;6.114;2023-05-29T05:44:28;30.40;89.40
12761;DHT22;6444;49.742;6.114;2023-05-29T05:46:54;30.20;89.10
12761;DHT22;6444;49.742;6.114;2023-05-29T05:49:21;31.80;84.60
12761;DHT22;6444;49.742;6.114;2023-05-29T05:51:48;33.10;79.70
12761;DHT22;6444;49.742;6.114;2023-05-29T05:54:15;34.60;75.90
12761;DHT22;6444;49.742;6.114;2023-05-29T05:56:42;34.50;75.80
12761;DHT22;6444;49.742;6.114;2023-05-29T05:59:08;35.30;73.30
12761;DHT22;6444;49.742;6.114;2023-05-29T06:01:35;36.00;70.50
12761;DHT22;6444;49.742;6.114;2023-05-29T06:04:02;35.80;69.30
12761;DHT22;6444;49.742;6.114;2023-05-29T06:06:28;35.50;68.00
12761;DHT22;6444;49.742;6.114;2023-05-29T06:08:55;36.00;68.60
12761;DHT22;6444;49.742;6.114;2023-05-29T06:11:22;36.90;66.90
12761;DHT22;6444;49.742;6.114;2023-05-29T06:13:48;37.60;65.00
12761;DHT22;6444;49.742;6.114;2023-05-29T06:16:15;36.10;63.10
12761;DHT22;6444;49.742;6.114;2023-05-29T06:18:41;35.90;65.30
12761;DHT22;6444;49.742;6.114;2023-05-29T06:21:08;35.50;65.90
12761;DHT22;6444;49.742;6.114;2023-05-29T06:23:35;36.40;65.20
12761;DHT22;6444;49.742;6.114;2023-05-29T06:26:02;37.50;63.60
12761;DHT22;6444;49.742;6.114;2023-05-29T06:28:28;38.50;62.10
12761;DHT22;6444;49.742;6.114;2023-05-29T06:30:55;39.60;59.80
12761;DHT22;6444;49.742;6.114;2023-05-29T06:33:22;39.60;59.70
12761;DHT22;6444;49.742;6.114;2023-05-29T06:35:49;39.50;58.50
12761;DHT22;6444;49.742;6.114;2023-05-29T06:38:15;39.40;58.70
12761;DHT22;6444;49.742;6.114;2023-05-29T06:40:42;39.30;58.00
12761;DHT22;6444;49.742;6.114;2023-05-29T06:43:08;39.10;57.60
12761;DHT22;6444;49.742;6.114;2023-05-29T06:45:38;38.30;56.50
12761;DHT22;6444;49.742;6.114;2023-05-29T06:48:04;36.10;58.20
12761;DHT22;6444;49.742;6.114;2023-05-29T06:50:32;31.50;63.50
12761;DHT22;6444;49.742;6.114;2023-05-29T06:52:58;31.30;63.40
12761;DHT22;6444;49.742;6.114;2023-05-29T06:55:25;32.10;64.30
12761;DHT22;6444;49.742;6.114;2023-05-29T06:57:52;33.60;63.60
12761;DHT22;6444;49.742;6.114;2023-05-29T07:00:18;35.10;59.60
12761;DHT22;6444;49.742;6.114;2023-05-29T07:02:45;33.60;62.10
12761;DHT22;6444;49.742;6.114;2023-05-29T07:05:12;32.70;62.30
12761;DHT22;6444;49.742;6.114;2023-05-29T07:07:38;32.00;63.70
12761;DHT22;6444;49.742;6.114;2023-05-29T07:10:05;31.20;64.30
12761;DHT22;6444;49.742;6.114;2023-05-29T07:12:32;29.00;68.30
12761;DHT22;6444;49.742;6.114;2023-05-29T07:14:58;28.60;70.50
12761;DHT22;6444;49.742;6.114;2023-05-29T07:17:25;28.50;70.50
12761;DHT22;6444;49.742;6.114;2023-05-29T07:19:52;27.90;70.80
12761;DHT22;6444;49.742;6.114;2023-05-29T07:22:19;27.90;71.30
12761;DHT22;6444;49.742;6.114;2023-05-29T07:24:46;27.80;71.30
12761;DHT22;6444;49.742;6.114;2023-05-29T07:27:12;28.40;72.70
12761;DHT22;6444;49.742;6.114;2023-05-29T07:29:39;28.00;72.20
12761;DHT22;6444;49.742;6.114;2023-05-29T07:32:05;29.40;69.80
12761;DHT22;6444;49.742;6.114;2023-05-29T07:34:32;29.40;70.00
12761;DHT22;6444;49.742;6.114;2023-05-29T07:39:29;30.20;70.10
12761;DHT22;6444;49.742;6.114;2023-05-29T07:41:55;30.10;70.00
12761;DHT22;6444;49.742;6.114;2023-05-29T07:44:22;31.40;64.60
12761;DHT22;6444;49.742;6.114;2023-05-29T07:46:49;31.60;66.30
12761;DHT22;6444;49.742;6.114;2023-05-29T07:49:15;31.70;65.90
12761;DHT22;6444;49.742;6.114;2023-05-29T07:51:42;30.70;68.00
12761;DHT22;6444;49.742;6.114;2023-05-29T07:54:09;31.80;66.10
12761;DHT22;6444;49.742;6.114;2023-05-29T07:56:35;32.80;65.20
12761;DHT22;6444;49.742;6.114;2023-05-29T07:59:02;34.00;64.70
12761;DHT22;6444;49.742;6.114;2023-05-29T08:01:29;36.00;62.10
12761;DHT22;6444;49.742;6.114;2023-05-29T08:03:56;35.90;62.00
12761;DHT22;6444;49.742;6.114;2023-05-29T08:06:22;37.40;60.20
12761;DHT22;6444;49.742;6.114;2023-05-29T08:08:49;37.80;59.10
12761;DHT22;6444;49.742;6.114;2023-05-29T08:11:16;37.00;59.20
12761;DHT22;6444;49.742;6.114;2023-05-29T08:13:42;36.40;60.50
12761;DHT22;6444;49.742;6.114;2023-05-29T08:16:09;37.30;59.40
12761;DHT22;6444;49.742;6.114;2023-05-29T08:18:36;35.50;61.20
12761;DHT22;6444;49.742;6.114;2023-05-29T08:21:02;35.70;62.50
12761;DHT22;6444;49.742;6.114;2023-05-29T08:23:29;37.10;60.30
12761;DHT22;6444;49.742;6.114;2023-05-29T08:25:56;37.20;59.90
12761;DHT22;6444;49.742;6.114;2023-05-29T08:28:23;37.10;59.80
12761;DHT22;6444;49.742;6.114;2023-05-29T08:30:50;37.10;60.20
12761;DHT22;6444;49.742;6.114;2023-05-29T08:33:16;38.30;57.00
12761;DHT22;6444;49.742;6.114;2023-05-29T08:35:43;36.60;60.60
12761;DHT22;6444;49.742;6.114;2023-05-29T08:38:10;38.70;58.10
12761;DHT22;6444;49.742;6.114;2023-05-29T08:40:37;38.60;58.00
12761;DHT22;6444;49.742;6.114;2023-05-29T08:43:08;39.60;57.70
12761;DHT22;6444;49.742;6.114;2023-05-29T08:45:33;39.70;55.50
12761;DHT22;6444;49.742;6.114;2023-05-29T08:48:00;36.90;57.30
12761;DHT22;6444;49.742;6.114;2023-05-29T08:50:26;34.40;60.30
12761;DHT22;6444;49.742;6.114;2023-05-29T08:52:53;33.40;63.50
12761;DHT22;6444;49.742;6.114;2023-05-29T08:55:20;31.90;62.90
12761;DHT22;6444;49.742;6.114;2023-05-29T08:57:46;30.60;66.30
12761;DHT22;6444;49.742;6.114;2023-05-29T09:00:13;30.70;67.00
12761;DHT22;6444;49.742;6.114;2023-05-29T09:02:40;30.70;68.50
12761;DHT22;6444;49.742;6.114;2023-05-29T09:05:06;30.00;69.10
12761;DHT22;6444;49.742;6.114;2023-05-29T09:07:33;31.30;68.20
12761;DHT22;6444;49.742;6.114;2023-05-29T09:09:59;33.30;64.30
12761;DHT22;6444;49.742;6.114;2023-05-29T09:12:26;35.00;60.20
12761;DHT22;6444;49.742;6.114;2023-05-29T09:14:53;36.60;59.00
12761;DHT22;6444;49.742;6.114;2023-05-29T09:17:20;37.60;57.90
12761;DHT22;6444;49.742;6.114;2023-05-29T09:19:47;35.90;59.70
12761;DHT22;6444;49.742;6.114;2023-05-29T09:22:13;36.70;59.20
12761;DHT22;6444;49.742;6.114;2023-05-29T09:24:47;38.30;56.50
12761;DHT22;6444;49.742;6.114;2023-05-29T09:27:12;38.20;56.40
12761;DHT22;6444;49.742;6.114;2023-05-29T09:29:39;38.40;57.30
12761;DHT22;6444;49.742;6.114;2023-05-29T09:32:09;36.30;58.40
12761;DHT22;6444;49.742;6.114;2023-05-29T09:34:35;35.40;58.70
12761;DHT22;6444;49.742;6.114;2023-05-29T09:37:02;35.30;59.50
12761;DHT22;6444;49.742;6.114;2023-05-29T09:39:29;32.30;60.00
12761;DHT22;6444;49.742;6.114;2023-05-29T09:41:56;32.10;59.90
12761;DHT22;6444;49.742;6.114;2023-05-29T09:44:22;32.10;63.60
12761;DHT22;6444;49.742;6.114;2023-05-29T09:46:49;30.90;63.20
12761;DHT22;6444;49.742;6.114;2023-05-29T09:49:15;32.40;61.60
12761;DHT22;6444;49.742;6.114;2023-05-29T09:51:44;33.20;62.50
12761;DHT22;6444;49.742;6.114;2023-05-29T09:54:15;33.10;62.30
12761;DHT22;6444;49.742;6.114;2023-05-29T09:56:42;35.00;59.70
12761;DHT22;6444;49.742;6.114;2023-05-29T09:59:12;34.40;58.60
12761;DHT22;6444;49.742;6.114;2023-05-29T10:01:41;32.80;62.60
12761;DHT22;6444;49.742;6.114;2023-05-29T10:04:13;33.20;61.10
12761;DHT22;6444;49.742;6.114;2023-05-29T10:06:44;33.80;60.70
12761;DHT22;6444;49.742;6.114;2023-05-29T10:09:09;34.00;60.50
12761;DHT22;6444;49.742;6.114;2023-05-29T10:11:36;30.90;62.40
12761;DHT22;6444;49.742;6.114;2023-05-29T10:14:02;29.30;66.10
12761;DHT22;6444;49.742;6.114;2023-05-29T10:16:29;29.50;65.50
12761;DHT22;6444;49.742;6.114;2023-05-29T10:18:59;30.10;63.00
12761;DHT22;6444;49.742;6.114;2023-05-29T10:21:26;29.40;62.50
12761;DHT22;6444;49.742;6.114;2023-05-29T10:23:52;29.20;66.50
12761;DHT22;6444;49.742;6.114;2023-05-29T10:26:19;29.40;62.10
12761;DHT22;6444;49.742;6.114;2023-05-29T10:28:46;28.80;65.00
12761;DHT22;6444;49.742;6.114;2023-05-29T10:31:16;28.90;63.70
12761;DHT22;6444;49.742;6.114;2023-05-29T10:34:00;29.70;64.20
12761;DHT22;6444;49.742;6.114;2023-05-29T10:36:24;31.00;61.70
12761;DHT22;6444;49.742;6.114;2023-05-29T10:38:50;30.90;61.60
12761;DHT22;6444;49.742;6.114;2023-05-29T10:43:57;30.50;61.40
12761;DHT22;6444;49.742;6.114;2023-05-29T10:46:20;30.40;61.10
12761;DHT22;6444;49.742;6.114;2023-05-29T10:48:49;29.70;60.40
12761;DHT22;6444;49.742;6.114;2023-05-29T10:51:28;29.40;60.20
12761;DHT22;6444;49.742;6.114;2023-05-29T10:53:53;28.70;62.50
12761;DHT22;6444;49.742;6.114;2023-05-29T10:56:21;28.60;62.50
12761;DHT22;6444;49.742;6.114;2023-05-29T10:58:49;28.90;61.60
12761;DHT22;6444;49.742;6.114;2023-05-29T11:01:13;28.80;60.30
12761;DHT22;6444;49.742;6.114;2023-05-29T11:03:40;28.80;63.00
12761;DHT22;6444;49.742;6.114;2023-05-29T11:06:16;28.70;62.90
12761;DHT22;6444;49.742;6.114;2023-05-29T11:08:54;28.80;63.50
12761;DHT22;6444;49.742;6.114;2023-05-29T11:11:30;28.90;61.50
12761;DHT22;6444;49.742;6.114;2023-05-29T11:13:57;28.40;64.50
12761;DHT22;6444;49.742;6.114;2023-05-29T11:18:52;29.10;62.00
12761;DHT22;6444;49.742;6.114;2023-05-29T11:21:40;29.60;62.50
12761;DHT22;6444;49.742;6.114;2023-05-29T11:24:02;29.10;60.10
12761;DHT22;6444;49.742;6.114;2023-05-29T11:26:30;28.30;60.80
12761;DHT22;6444;49.742;6.114;2023-05-29T11:28:58;29.00;60.50
12761;DHT22;6444;49.742;6.114;2023-05-29T11:31:34;28.40;61.80
12761;DHT22;6444;49.742;6.114;2023-05-29T11:34:01;28.40;61.70
12761;DHT22;6444;49.742;6.114;2023-05-29T11:36:28;27.90;61.90
12761;DHT22;6444;49.742;6.114;2023-05-29T11:38:55;27.80;61.70
12761;DHT22;6444;49.742;6.114;2023-05-29T11:41:21;28.30;60.00
12761;DHT22;6444;49.742;6.114;2023-05-29T11:43:57;28.10;60.00
12761;DHT22;6444;49.742;6.114;2023-05-29T11:46:23;28.30;61.90
12761;DHT22;6444;49.742;6.114;2023-05-29T11:48:50;29.30;58.50
12761;DHT22;6444;49.742;6.114;2023-05-29T11:51:16;28.30;59.10
12761;DHT22;6444;49.742;6.114;2023-05-29T11:53:43;27.60;59.10
12761;DHT22;6444;49.742;6.114;2023-05-29T11:56:10;27.70;59.10
12761;DHT22;6444;49.742;6.114;2023-05-29T11:58:37;28.20;61.00
12761;DHT22;6444;49.742;6.114;2023-05-29T12:01:04;28.30;58.90
12761;DHT22;6444;49.742;6.114;2023-05-29T12:03:30;28.30;58.90
12761;DHT22;6444;49.742;6.114;2023-05-29T12:05:57;28.00;60.00
12761;DHT22;6444;49.742;6.114;2023-05-29T12:08:24;28.00;59.30
12761;DHT22;6444;49.742;6.114;2023-05-29T12:10:51;28.00;59.70
12761;DHT22;6444;49.742;6.114;2023-05-29T12:13:19;28.30;58.40
12761;DHT22;6444;49.742;6.114;2023-05-29T12:15:47;28.70;57.60
12761;DHT22;6444;49.742;6.114;2023-05-29T12:18:13;28.70;57.50
12761;DHT22;6444;49.742;6.114;2023-05-29T12:20:40;28.80;57.00
12761;DHT22;6444;49.742;6.114;2023-05-29T12:23:07;28.20;59.50
12761;DHT22;6444;49.742;6.114;2023-05-29T12:25:36;28.00;58.10
12761;DHT22;6444;49.742;6.114;2023-05-29T12:28:05;28.60;60.00
12761;DHT22;6444;49.742;6.114;2023-05-29T12:30:36;28.30;57.00
12761;DHT22;6444;49.742;6.114;2023-05-29T12:32:59;28.30;56.90
12761;DHT22;6444;49.742;6.114;2023-05-29T12:35:29;27.40;59.90
12761;DHT22;6444;49.742;6.114;2023-05-29T12:38:12;28.50;58.30
12761;DHT22;6444;49.742;6.114;2023-05-29T12:40:24;28.40;58.20
12761;DHT22;6444;49.742;6.114;2023-05-29T12:43:06;27.50;58.50
12761;DHT22;6444;49.742;6.114;2023-05-29T12:45:32;27.20;59.50
12761;DHT22;6444;49.742;6.114;2023-05-29T12:50:26;26.00;60.40
12761;DHT22;6444;49.742;6.114;2023-05-29T12:52:59;26.10;62.40
12761;DHT22;6444;49.742;6.114;2023-05-29T12:55:25;26.50;60.60
12761;DHT22;6444;49.742;6.114;2023-05-29T12:57:51;26.60;62.40
12761;DHT22;6444;49.742;6.114;2023-05-29T13:00:18;26.00;60.30
12761;DHT22;6444;49.742;6.114;2023-05-29T13:02:46;25.30;61.70
12761;DHT22;6444;49.742;6.114;2023-05-29T13:05:12;25.20;64.60
12761;DHT22;6444;49.742;6.114;2023-05-29T13:07:38;25.20;63.40
12761;DHT22;6444;49.742;6.114;2023-05-29T13:10:05;25.40;64.40
12761;DHT22;6444;49.742;6.114;2023-05-29T13:12:33;26.20;61.00
12761;DHT22;6444;49.742;6.114;2023-05-29T13:14:59;26.10;60.80
12761;DHT22;6444;49.742;6.114;2023-05-29T13:17:26;26.30;61.80
12761;DHT22;6444;49.742;6.114;2023-05-29T13:19:52;26.30;62.70
12761;DHT22;6444;49.742;6.114;2023-05-29T13:22:20;26.30;60.90
12761;DHT22;6444;49.742;6.114;2023-05-29T13:24:47;26.30;60.80
12761;DHT22;6444;49.742;6.114;2023-05-29T13:27:14;25.80;62.60
12761;DHT22;6444;49.742;6.114;2023-05-29T13:29:41;25.80;62.60
12761;DHT22;6444;49.742;6.114;2023-05-29T13:32:07;25.30;62.20
12761;DHT22;6444;49.742;6.114;2023-05-29T13:34:34;25.50;61.40
12761;DHT22;6444;49.742;6.114;2023-05-29T13:37:01;26.40;58.70
12761;DHT22;6444;49.742;6.114;2023-05-29T13:39:28;26.30;58.50
12761;DHT22;6444;49.742;6.114;2023-05-29T13:41:54;26.30;58.80
12761;DHT22;6444;49.742;6.114;2023-05-29T13:44:21;26.10;59.10
12761;DHT22;6444;49.742;6.114;2023-05-29T13:46:48;26.50;60.90
12761;DHT22;6444;49.742;6.114;2023-05-29T13:49:14;26.30;61.20
12761;DHT22;6444;49.742;6.114;2023-05-29T13:51:41;26.40;62.30
12761;DHT22;6444;49.742;6.114;2023-05-29T13:54:08;26.20;61.90
12761;DHT22;6444;49.742;6.114;2023-05-29T13:56:34;25.90;58.70
12761;DHT22;6444;49.742;6.114;2023-05-29T13:59:01;25.50;61.70
12761;DHT22;6444;49.742;6.114;2023-05-29T14:01:27;25.80;60.70
12761;DHT22;6444;49.742;6.114;2023-05-29T14:03:54;25.90;59.90
12761;DHT22;6444;49.742;6.114;2023-05-29T14:06:21;26.00;59.20
12761;DHT22;6444;49.742;6.114;2023-05-29T14:08:47;25.70;61.70
12761;DHT22;6444;49.742;6.114;2023-05-29T14:11:14;26.00;60.90
12761;DHT22;6444;49.742;6.114;2023-05-29T14:13:41;26.40;62.60
12761;DHT22;6444;49.742;6.114;2023-05-29T14:16:08;26.30;63.30
12761;DHT22;6444;49.742;6.114;2023-05-29T14:18:35;26.50;61.30
12761;DHT22;6444;49.742;6.114;2023-05-29T14:21:01;25.70;62.00
12761;DHT22;6444;49.742;6.114;2023-05-29T14:23:28;26.10;61.30
12761;DHT22;6444;49.742;6.114;2023-05-29T14:25:55;25.40;59.00
12761;DHT22;6444;49.742;6.114;2023-05-29T14:28:22;25.40;59.00
12761;DHT22;6444;49.742;6.114;2023-05-29T14:30:48;25.50;63.30
12761;DHT22;6444;49.742;6.114;2023-05-29T14:33:15;25.60;63.40
12761;DHT22;6444;49.742;6.114;2023-05-29T14:35:43;25.80;64.70
12761;DHT22;6444;49.742;6.114;2023-05-29T14:38:09;25.70;64.70
12761;DHT22;6444;49.742;6.114;2023-05-29T14:40:36;25.90;65.20
12761;DHT22;6444;49.742;6.114;2023-05-29T14:43:02;26.50;63.90
12761;DHT22;6444;49.742;6.114;2023-05-29T14:45:29;26.50;63.60
12761;DHT22;6444;49.742;6.114;2023-05-29T14:47:56;26.20;64.60
12761;DHT22;6444;49.742;6.114;2023-05-29T14:50:23;26.10;64.40
12761;DHT22;6444;49.742;6.114;2023-05-29T14:52:50;26.40;63.50
12761;DHT22;6444;49.742;6.114;2023-05-29T14:55:16;26.50;64.60
12761;DHT22;6444;49.742;6.114;2023-05-29T14:57:43;26.70;64.70
12761;DHT22;6444;49.742;6.114;2023-05-29T15:00:10;26.30;62.70
12761;DHT22;6444;49.742;6.114;2023-05-29T15:02:37;26.20;62.50
12761;DHT22;6444;49.742;6.114;2023-05-29T15:05:04;26.00;62.00
12761;DHT22;6444;49.742;6.114;2023-05-29T15:07:30;26.10;65.20
12761;DHT22;6444;49.742;6.114;2023-05-29T15:09:57;26.00;63.60
12761;DHT22;6444;49.742;6.114;2023-05-29T15:12:24;25.60;63.70
12761;DHT22;6444;49.742;6.114;2023-05-29T15:14:50;25.50;64.10
12761;DHT22;6444;49.742;6.114;2023-05-29T15:17:18;25.50;66.20
12761;DHT22;6444;49.742;6.114;2023-05-29T15:19:44;25.50;66.20
12761;DHT22;6444;49.742;6.114;2023-05-29T15:22:12;25.10;76.10
12761;DHT22;6444;49.742;6.114;2023-05-29T15:24:38;25.00;76.00
12761;DHT22;6444;49.742;6.114;2023-05-29T15:27:05;25.10;76.50
12761;DHT22;6444;49.742;6.114;2023-05-29T15:29:35;24.90;77.60
12761;DHT22;6444;49.742;6.114;2023-05-29T15:32:01;24.90;78.90
12761;DHT22;6444;49.742;6.114;2023-05-29T15:34:29;24.70;81.30
12761;DHT22;6444;49.742;6.114;2023-05-29T15:36:55;24.60;81.10
12761;DHT22;6444;49.742;6.114;2023-05-29T15:39:22;24.50;81.40
12761;DHT22;6444;49.742;6.114;2023-05-29T15:41:48;24.40;80.40
12761;DHT22;6444;49.742;6.114;2023-05-29T15:44:15;24.00;81.90
12761;DHT22;6444;49.742;6.114;2023-05-29T15:46:42;23.80;85.60
12761;DHT22;6444;49.742;6.114;2023-05-29T15:49:09;23.70;85.50
12761;DHT22;6444;49.742;6.114;2023-05-29T15:51:43;24.10;84.70
12761;DHT22;6444;49.742;6.114;2023-05-29T15:54:10;25.20;82.60
12761;DHT22;6444;49.742;6.114;2023-05-29T15:56:37;25.10;81.80
12761;DHT22;6444;49.742;6.114;2023-05-29T15:59:03;24.10;84.40